Time;durP1;ratioP1;P1;durP2;ratioP2;P2;SDS_P1;SDS_P2;PMS_P1;PMS_P2;Temp;Humidity;BMP_temperature;BMP_pressure;BME280_temperature;BME280_humidity;BME280_pressure;Samples;Min_cycle;Max_cycle;Signal;HPM_P1;HPM_P2
2021/11/13 00:10:54;;;;;;;34.13;16.90;;;;;;;5.88;89.33;101149.09;31230771;28;20524;-79
2021/11/13 00:25:58;;;;;;;40.27;18.53;;;;;;;5.82;88.43;101154.00;31245564;28;20053;-79
2021/11/13 00:41:00;;;;;;;40.43;18.17;;;;;;;5.69;90.07;101160.69;31193703;28;20540;-78
2021/11/13 00:56:02;;;;;;;41.17;18.83;;;;;;;5.54;90.28;101161.59;31233202;28;20049;-80
2021/11/13 01:11:04;;;;;;;46.77;18.67;;;;;;;5.38;90.71;101175.16;31189036;28;20060;-78
2021/11/13 01:26:06;;;;;;;45.47;19.90;;;;;;;5.32;91.63;101189.28;31223094;28;20053;-78
2021/11/13 01:41:09;;;;;;;44.93;20.53;;;;;;;5.01;91.91;101196.34;31158881;28;20140;-78
2021/11/13 01:56:16;;;;;;;43.67;19.90;;;;;;;4.98;92.01;101202.44;31196053;28;20053;-79
2021/11/13 02:11:22;;;;;;;43.93;20.13;;;;;;;4.88;92.73;101205.69;31244626;28;20057;-79
2021/11/13 02:26:25;;;;;;;48.33;21.47;;;;;;;4.64;92.69;101208.63;31190414;28;20050;-79
2021/11/13 02:41:29;;;;;;;42.37;20.80;;;;;;;4.57;93.49;101224.59;31169967;28;20499;-79
2021/11/13 02:56:32;;;;;;;41.10;19.87;;;;;;;4.53;94.92;101237.19;31227629;28;20141;-78
2021/11/13 03:11:34;;;;;;;46.13;20.43;;;;;;;4.56;94.10;101231.13;31218708;28;20064;-78
2021/11/13 03:26:37;;;;;;;51.43;21.87;;;;;;;4.64;95.03;101251.66;31196021;28;20084;-80
2021/11/13 03:41:39;;;;;;;46.97;20.00;;;;;;;4.54;95.07;101271.00;31226679;28;20060;-79
2021/11/13 03:56:41;;;;;;;41.43;19.97;;;;;;;4.40;95.57;101291.06;31180353;28;20563;-79
2021/11/13 04:11:43;;;;;;;43.90;20.63;;;;;;;4.16;95.19;101307.38;31228016;28;20059;-79
2021/11/13 04:26:45;;;;;;;44.07;20.30;;;;;;;3.95;95.79;101312.19;31205974;28;20127;-80
2021/11/13 04:41:48;;;;;;;43.83;19.87;;;;;;;3.98;95.41;101324.94;31219674;28;20057;-78
2021/11/13 04:56:50;;;;;;;47.70;20.67;;;;;;;3.98;96.25;101339.16;31178942;28;20386;-78
2021/11/13 05:11:52;;;;;;;41.17;19.97;;;;;;;3.95;95.32;101365.91;31223317;28;20049;-79
2021/11/13 05:26:54;;;;;;;44.33;20.47;;;;;;;4.74;92.85;101380.25;31172900;28;20058;-77
2021/11/13 05:41:56;;;;;;;42.77;18.63;;;;;;;6.29;86.22;101392.84;31221382;28;20481;-77
2021/11/13 05:56:58;;;;;;;41.33;19.90;;;;;;;7.69;79.09;101397.31;31220262;28;20045;-77
2021/11/13 06:12:20;;;;;;;37.73;17.43;;;;;;;8.90;73.30;101404.00;31171311;28;20104;-77
2021/11/13 06:27:22;;;;;;;35.37;16.23;;;;;;;10.04;69.02;101412.78;31210538;28;20055;-78
2021/11/13 06:42:24;;;;;;;31.13;15.50;;;;;;;10.94;63.05;101431.56;31168991;28;20058;-77
2021/11/13 06:57:26;;;;;;;36.80;17.60;;;;;;;11.81;59.27;101431.06;31201239;28;20509;-78
2021/11/13 07:12:29;;;;;;;35.27;17.73;;;;;;;12.71;56.20;101434.88;31211915;28;20053;-75
2021/11/13 07:27:31;;;;;;;34.37;17.47;;;;;;;13.47;53.12;101433.81;31181251;28;20495;-77
2021/11/13 07:42:33;;;;;;;32.60;17.30;;;;;;;14.13;51.41;101436.94;31192061;28;20144;-78
2021/11/13 07:57:35;;;;;;;37.47;18.37;;;;;;;14.40;49.14;101456.09;31244249;28;20048;-79
2021/11/13 08:12:38;;;;;;;26.37;13.17;;;;;;;14.82;47.12;101453.94;31210153;28;20508;-78
2021/11/13 08:27:40;;;;;;;30.10;14.47;;;;;;;14.91;45.95;101449.47;31255535;28;20047;-76
2021/11/13 08:42:43;;;;;;;34.37;15.00;;;;;;;14.96;46.15;101448.25;31191897;28;20562;-76
2021/11/13 08:57:46;;;;;;;22.90;13.13;;;;;;;15.26;45.50;101436.41;31245789;28;20053;-79
2021/11/13 09:12:50;;;;;;;18.50;9.73;;;;;;;15.58;43.81;101444.06;31252696;28;20057;-79
2021/11/13 09:27:52;;;;;;;21.13;8.40;;;;;;;16.00;41.41;101437.75;31219507;28;20059;-78
2021/11/13 09:42:59;;;;;;;20.17;9.65;;;;;;;16.47;40.19;101434.75;31237725;28;20049;-78
2021/11/13 09:58:01;;;;;;;23.10;11.95;;;;;;;16.11;41.48;101436.72;31222979;28;20045;-78
2021/11/13 10:13:05;;;;;;;23.20;11.20;;;;;;;15.59;42.38;101440.88;31177703;28;20056;-77
2021/11/13 10:28:15;;;;;;;54.03;24.50;;;;;;;14.68;43.41;101444.75;31241914;28;20049;-77
2021/11/13 10:43:18;;;;;;;64.30;27.23;;;;;;;15.15;43.55;101450.25;31233647;28;20052;-78
2021/11/13 10:58:36;;;;;;;22.58;10.40;;;;;;;16.19;39.89;101446.34;31187376;28;20056;-79
2021/11/13 11:13:49;;;;;;;18.92;9.30;;;;;;;16.23;39.26;101444.31;31246942;28;20132;-77
2021/11/13 11:28:59;;;;;;;26.33;11.13;;;;;;;16.03;40.67;101438.84;31247027;28;20129;-79
2021/11/13 11:44:01;;;;;;;18.15;8.35;;;;;;;16.99;38.45;101450.41;31205013;28;20513;-79
2021/11/13 11:59:05;;;;;;;17.08;8.77;;;;;;;17.75;37.39;101434.28;31172598;28;20062;-78
2021/11/13 12:14:37;;;;;;;17.52;9.05;;;;;;;18.03;35.74;101422.47;31214469;28;20053;-78
2021/11/13 12:29:46;;;;;;;18.40;9.32;;;;;;;14.48;42.46;101424.00;31251890;28;20140;-81
2021/11/13 12:44:56;;;;;;;19.27;8.67;;;;;;;12.46;47.67;101438.53;31184172;28;20133;-79
2021/11/13 13:00:13;;;;;;;18.67;8.73;;;;;;;11.69;49.86;101445.84;31228576;28;20058;-79
2021/11/13 13:15:37;;;;;;;21.77;9.77;;;;;;;11.42;51.19;101436.56;31188058;28;20060;-79
2021/11/13 13:30:40;;;;;;;19.87;9.37;;;;;;;11.23;52.80;101441.25;31200712;28;20058;-80
2021/11/13 13:45:49;;;;;;;22.43;9.30;;;;;;;10.85;55.09;101447.50;31189554;28;20057;-80
2021/11/13 14:00:52;;;;;;;20.67;10.57;;;;;;;10.54;55.82;101457.16;31158661;28;1351021;-80
2021/11/13 14:15:57;;;;;;;21.53;10.17;;;;;;;10.33;56.60;101455.16;31223246;28;20059;-79
2021/11/13 14:31:22;;;;;;;19.90;10.80;;;;;;;10.05;57.55;101465.88;31180052;28;20060;-80
2021/11/13 14:46:25;;;;;;;22.23;10.47;;;;;;;9.88;58.98;101473.56;31192618;28;20080;-80
2021/11/13 15:01:27;;;;;;;22.07;10.63;;;;;;;9.80;59.60;101485.53;31196070;28;20499;-79
2021/11/13 15:16:29;;;;;;;25.43;13.27;;;;;;;9.54;60.85;101496.59;31199116;28;20141;-79
2021/11/13 15:31:33;;;;;;;39.23;15.13;;;;;;;9.37;62.04;101513.50;31177067;28;20049;-79
2021/11/13 15:46:36;;;;;;;36.77;16.77;;;;;;;9.27;62.75;101530.44;31206746;28;20073;-79
2021/11/13 16:01:41;;;;;;;37.53;16.30;;;;;;;9.01;63.78;101529.44;31148242;28;20062;-80
2021/11/13 16:16:43;;;;;;;;;;;;;;;8.81;68.52;101538.91;31224058;28;20136;-80
2021/11/13 16:31:45;;;;;;;52.13;24.60;;;;;;;8.56;67.96;101557.59;31149319;28;19921;-82
2021/11/13 16:46:49;;;;;;;62.87;27.40;;;;;;;8.33;69.87;101555.00;31237281;28;20132;-80
2021/11/13 17:01:52;;;;;;;61.60;27.93;;;;;;;8.17;69.54;101563.28;31212427;28;20053;-79
2021/11/13 17:16:55;;;;;;;72.97;29.00;;;;;;;7.96;70.82;101573.03;31183974;28;20054;-80
2021/11/13 17:31:57;;;;;;;67.57;31.13;;;;;;;7.86;72.42;101586.00;31254286;28;20081;-81
2021/11/13 17:47:00;;;;;;;58.63;26.13;;;;;;;7.80;74.10;101592.84;31239920;28;20181;-81
2021/11/13 18:02:02;;;;;;;51.63;23.73;;;;;;;7.74;74.24;101594.34;31225790;28;20057;-80
2021/11/13 18:17:05;;;;;;;57.67;24.30;;;;;;;7.70;75.31;101615.13;31212888;28;20506;-79
2021/11/13 18:32:09;;;;;;;46.13;21.77;;;;;;;7.56;75.82;101625.66;31248321;28;20085;-79
2021/11/13 18:47:11;;;;;;;54.40;23.27;;;;;;;7.27;77.58;101629.03;31207828;28;20080;-80
2021/11/13 19:02:13;;;;;;;51.17;23.47;;;;;;;7.04;78.63;101637.88;31237179;28;20057;-79
2021/11/13 19:17:15;;;;;;;62.33;24.93;;;;;;;6.96;79.32;101640.78;31214675;28;20060;-82
2021/11/13 19:32:17;;;;;;;45.10;21.70;;;;;;;6.94;79.58;101643.06;31221181;28;20144;-81
2021/11/13 19:47:24;;;;;;;50.67;23.83;;;;;;;6.79;80.63;101653.59;31198411;28;20573;-81
2021/11/13 20:02:27;;;;;;;49.20;22.57;;;;;;;6.69;80.80;101656.06;31233938;28;20506;-79
2021/11/13 20:17:30;;;;;;;52.70;24.57;;;;;;;6.58;80.48;101652.38;31169620;28;20419;-80
2021/11/13 20:32:32;;;;;;;43.93;21.97;;;;;;;6.50;80.17;101651.41;31251238;28;20144;-81
2021/11/13 20:47:34;;;;;;;54.83;23.17;;;;;;;6.33;80.80;101651.81;31219782;28;20136;-79
2021/11/13 21:02:36;;;;;;;57.77;27.03;;;;;;;6.02;81.71;101664.22;31226340;28;20085;-80
2021/11/13 21:17:39;;;;;;;62.37;28.87;;;;;;;5.79;83.78;101666.72;31222667;28;20053;-78
2021/11/13 21:32:41;;;;;;;63.53;29.83;;;;;;;5.46;82.74;101652.75;31220297;28;20140;-80
2021/11/13 21:47:43;;;;;;;54.63;23.17;;;;;;;5.45;82.54;101651.97;31206307;28;20049;-80
2021/11/13 22:02:45;;;;;;;49.67;20.00;;;;;;;5.30;83.07;101654.66;31209345;28;20415;-79
2021/11/13 22:17:47;;;;;;;42.63;20.00;;;;;;;5.13;83.72;101655.75;31211242;28;20054;-78
2021/11/13 22:32:49;;;;;;;43.73;21.30;;;;;;;5.02;85.03;101650.06;31260027;28;20045;-80
2021/11/13 22:47:51;;;;;;;50.53;22.23;;;;;;;5.06;84.02;101659.03;31199757;28;20076;-79
2021/11/13 23:02:53;;;;;;;56.33;24.13;;;;;;;4.86;84.31;101651.94;31219271;28;20057;-79
2021/11/13 23:17:55;;;;;;;64.47;26.30;;;;;;;4.68;84.45;101656.03;31222126;28;20143;-80
2021/11/13 23:32:59;;;;;;;88.00;35.20;;;;;;;4.32;85.10;101660.31;31209042;28;20060;-79
2021/11/13 23:48:01;;;;;;;88.20;37.10;;;;;;;4.20;85.98;101651.50;31196851;28;20050;-81
